createdAt,value
2022-09-17T00:00:13.708Z,23.88
2022-09-17T00:02:47.857Z,24.35
2022-09-17T00:05:17.167Z,27.45
2022-09-17T00:07:46.328Z,26.52
2022-09-17T00:10:15.474Z,27.10
2022-09-17T00:12:45.981Z,27.45
2022-09-17T00:15:15.947Z,27.98
2022-09-17T00:17:45.413Z,28.27
2022-09-17T00:20:14.885Z,29.05
2022-09-17T00:22:43.988Z,29.98
2022-09-17T00:25:13.231Z,30.58
2022-09-17T00:27:42.533Z,30.63
2022-09-17T00:30:15.084Z,29.05
2022-09-17T00:32:44.261Z,30.85
2022-09-17T00:35:14.633Z,27.92
2022-09-17T00:37:43.769Z,29.80
2022-09-17T00:40:12.998Z,30.17
2022-09-17T00:42:42.212Z,31.23
2022-09-17T00:45:13.443Z,28.27
2022-09-17T00:47:46.849Z,30.25
2022-09-17T00:50:19.532Z,33.65
2022-09-17T00:55:29.015Z,30.80
2022-09-17T00:58:00.898Z,33.78
2022-09-17T01:00:32.397Z,26.90
2022-09-17T01:03:02.267Z,28.77
2022-09-17T01:05:43.560Z,30.55
2022-09-17T01:08:24.050Z,30.20
2022-09-17T01:11:28.579Z,32.97
2022-09-17T01:14:19.199Z,33.05
2022-09-17T01:17:01.609Z,36.83
2022-09-17T01:20:06.664Z,26.67
2022-09-17T01:22:42.373Z,35.58
2022-09-17T01:25:25.147Z,31.40
2022-09-17T01:28:29.998Z,53.75
2022-09-17T01:31:36.283Z,31.92
2022-09-17T01:34:18.242Z,32.95
2022-09-17T01:37:04.453Z,34.55
2022-09-17T01:39:45.454Z,26.48
2022-09-17T01:42:26.158Z,31.40
2022-09-17T01:45:01.563Z,27.15
2022-09-17T01:47:37.403Z,28.42
2022-09-17T01:50:14.066Z,25.85
2022-09-17T01:52:45.192Z,27.02
2022-09-17T01:55:17.514Z,28.33
2022-09-17T01:57:56.107Z,25.42
2022-09-17T02:00:25.690Z,28.33
2022-09-17T02:03:03.640Z,29.38
2022-09-17T02:05:41.532Z,27.30
2022-09-17T02:08:15.906Z,33.95
2022-09-17T02:10:49.303Z,31.67
2022-09-17T02:13:24.378Z,32.33
2022-09-17T02:15:58.613Z,38.67
2022-09-17T02:18:38.902Z,32.03
2022-09-17T02:21:16.750Z,33.38
2022-09-17T02:23:58.124Z,35.17
2022-09-17T02:26:29.042Z,37.13
2022-09-17T02:29:06.788Z,38.55
2022-09-17T02:31:36.085Z,34.25
2022-09-17T02:34:08.692Z,31.30
2022-09-17T02:36:38.614Z,36.80
2022-09-17T02:39:07.766Z,29.88
2022-09-17T02:41:48.026Z,33.53
2022-09-17T02:44:30.010Z,44.92
2022-09-17T02:47:33.366Z,36.30
2022-09-17T02:53:07.898Z,54.67
2022-09-17T02:55:44.437Z,46.03
2022-09-17T02:58:27.150Z,42.72
2022-09-17T03:01:01.726Z,47.60
2022-09-17T03:03:35.645Z,39.75
2022-09-17T03:06:07.226Z,34.08
2022-09-17T03:08:40.232Z,32.70
2022-09-17T03:11:13.035Z,36.35
2022-09-17T03:13:42.482Z,32.38
2022-09-17T03:16:11.696Z,31.23
2022-09-17T03:18:40.915Z,37.88
2022-09-17T03:21:12.530Z,32.47
2022-09-17T03:23:41.674Z,35.80
2022-09-17T03:26:10.805Z,35.50
2022-09-17T03:28:39.901Z,32.90
2022-09-17T03:31:09.214Z,41.80
2022-09-17T03:33:38.369Z,37.30
2022-09-17T03:36:08.089Z,34.78
2022-09-17T03:38:38.713Z,46.55
2022-09-17T03:41:08.732Z,34.50
2022-09-17T03:43:39.903Z,35.63
2022-09-17T03:46:09.214Z,38.40
2022-09-17T03:48:39.787Z,35.08
2022-09-17T03:51:09.728Z,33.90
2022-09-17T03:53:40.465Z,38.08
2022-09-17T03:56:10.014Z,35.20
2022-09-17T03:58:39.253Z,37.80
2022-09-17T04:01:08.414Z,31.85
2022-09-17T04:03:37.586Z,33.92
2022-09-17T04:06:07.195Z,34.63
2022-09-17T04:08:36.848Z,34.97
2022-09-17T04:11:07.899Z,36.85
2022-09-17T04:13:37.433Z,37.20
2022-09-17T04:16:07.181Z,39.20
2022-09-17T04:18:36.505Z,37.30
2022-09-17T04:21:06.193Z,36.35
2022-09-17T04:23:35.318Z,34.28
2022-09-17T04:26:04.681Z,36.47
2022-09-17T04:28:35.256Z,41.33
2022-09-17T04:31:04.489Z,41.65
2022-09-17T04:33:33.705Z,40.08
2022-09-17T04:36:03.194Z,41.10
2022-09-17T04:38:33.653Z,43.67
2022-09-17T04:41:02.937Z,39.80
2022-09-17T04:43:32.052Z,43.50
2022-09-17T04:46:02.868Z,40.40
2022-09-17T04:48:32.657Z,39.33
2022-09-17T04:51:02.074Z,43.67
2022-09-17T04:53:34.193Z,40.40
2022-09-17T04:56:05.871Z,71.88
2022-09-17T04:58:36.338Z,39.90
2022-09-17T05:01:09.054Z,42.67
2022-09-17T05:06:08.074Z,46.67
2022-09-17T05:08:39.284Z,43.30
2022-09-17T05:11:08.387Z,40.40
2022-09-17T05:13:37.577Z,41.53
2022-09-17T05:16:08.372Z,50.75
2022-09-17T05:18:37.609Z,43.00
2022-09-17T05:21:08.969Z,37.08
2022-09-17T05:23:38.247Z,48.17
2022-09-17T05:26:07.375Z,39.72
2022-09-17T05:28:36.669Z,41.40
2022-09-17T05:31:07.574Z,58.58
2022-09-17T05:33:36.926Z,46.38
2022-09-17T05:36:07.146Z,42.00
2022-09-17T05:38:36.422Z,54.95
2022-09-17T05:41:07.357Z,40.13
2022-09-17T05:43:36.790Z,47.88
2022-09-17T05:46:08.137Z,51.30
2022-09-17T05:48:37.334Z,41.88
2022-09-17T05:51:06.874Z,51.03
2022-09-17T05:53:36.055Z,60.47
2022-09-17T05:56:05.548Z,52.40
2022-09-17T05:58:34.780Z,57.85
2022-09-17T06:01:04.409Z,45.13
2022-09-17T06:03:35.803Z,64.38
2022-09-17T06:06:05.604Z,51.97
2022-09-17T06:08:36.898Z,62.28
2022-09-17T06:11:06.920Z,48.85
2022-09-17T06:13:36.792Z,51.17
2022-09-17T06:16:06.504Z,47.28
2022-09-17T06:18:37.169Z,52.00
2022-09-17T06:21:06.920Z,47.63
2022-09-17T06:23:37.298Z,52.72
2022-09-17T06:26:07.964Z,49.80
2022-09-17T06:28:41.413Z,49.28
2022-09-17T06:31:13.155Z,50.00
2022-09-17T06:33:43.731Z,49.55
2022-09-17T06:36:14.650Z,49.47
2022-09-17T06:38:44.620Z,47.17
2022-09-17T06:41:14.759Z,54.17
2022-09-17T06:43:43.946Z,53.47
2022-09-17T06:46:13.390Z,57.05
2022-09-17T06:48:43.986Z,66.38
2022-09-17T06:51:14.712Z,56.28
2022-09-17T06:53:43.907Z,51.13
2022-09-17T06:56:13.071Z,58.83
2022-09-17T06:58:43.827Z,58.78
2022-09-17T07:01:14.060Z,55.65
2022-09-17T07:03:44.980Z,60.55
2022-09-17T07:06:14.084Z,58.20
2022-09-17T07:08:43.680Z,57.92
2022-09-17T07:11:12.777Z,52.50
2022-09-17T07:13:42.055Z,51.05
2022-09-17T07:16:12.125Z,52.92
2022-09-17T07:18:41.336Z,45.28
2022-09-17T07:21:12.702Z,43.13
2022-09-17T07:23:41.964Z,42.72
2022-09-17T07:26:16.503Z,40.13
2022-09-17T07:28:46.096Z,61.15
2022-09-17T07:31:16.911Z,59.10
2022-09-17T07:33:47.320Z,80.93
2022-09-17T07:36:18.900Z,79.57
2022-09-17T07:38:48.448Z,82.50
2022-09-17T07:41:19.014Z,104.97
2022-09-17T07:43:48.271Z,63.65
2022-09-17T07:46:19.617Z,62.15
2022-09-17T07:48:49.998Z,56.58
2022-09-17T07:51:23.194Z,57.45
2022-09-17T07:53:53.801Z,51.03
2022-09-17T07:56:23.486Z,52.03
2022-09-17T07:58:53.059Z,52.13
2022-09-17T08:01:22.960Z,52.28
2022-09-17T08:03:54.975Z,50.03
2022-09-17T08:06:28.377Z,51.88
2022-09-17T08:08:58.153Z,52.60
2022-09-17T08:11:59.826Z,50.55
2022-09-17T08:14:19.260Z,53.17
2022-09-17T08:16:48.362Z,56.47
2022-09-17T08:19:20.466Z,61.45
2022-09-17T08:21:51.173Z,55.33
2022-09-17T08:24:20.307Z,57.83
2022-09-17T08:26:49.432Z,55.17
2022-09-17T08:29:19.035Z,58.53
2022-09-17T08:31:48.413Z,52.78
2022-09-17T08:34:17.532Z,81.63
2022-09-17T08:36:46.640Z,52.00
2022-09-17T08:39:18.233Z,51.72
2022-09-17T08:41:56.567Z,46.72
2022-09-17T08:44:33.427Z,45.05
2022-09-17T08:47:10.421Z,49.65
2022-09-17T08:49:52.189Z,90.22
2022-09-17T08:53:02.193Z,84.55
2022-09-17T08:55:43.880Z,144.10
2022-09-17T08:58:52.704Z,165.95
2022-09-17T09:01:35.814Z,171.88
2022-09-17T09:04:56.087Z,147.88
2022-09-17T09:07:29.003Z,196.20
2022-09-17T09:10:14.791Z,150.07
2022-09-17T09:12:46.874Z,168.07
2022-09-17T09:15:38.311Z,140.70
2022-09-17T09:18:19.499Z,198.95
2022-09-17T09:20:55.759Z,150.15
2022-09-17T09:23:36.013Z,140.18
2022-09-17T09:26:15.473Z,145.05
2022-09-17T09:29:06.025Z,137.27
2022-09-17T09:32:15.230Z,102.18
2022-09-17T09:34:46.318Z,160.77
2022-09-17T09:37:23.227Z,155.90
2022-09-17T09:39:55.215Z,195.05
2022-09-17T09:42:32.051Z,161.63
2022-09-17T09:45:15.054Z,196.32
2022-09-17T09:48:04.825Z,167.90
2022-09-17T09:51:05.778Z,152.63
2022-09-17T09:53:54.444Z,153.15
2022-09-17T09:56:50.592Z,167.43
2022-09-17T09:59:20.990Z,156.82
2022-09-17T10:01:51.982Z,160.23
2022-09-17T10:04:23.784Z,185.15
2022-09-17T10:06:55.871Z,153.48
2022-09-17T10:09:24.947Z,209.13
2022-09-17T10:12:07.319Z,206.75
2022-09-17T10:14:38.563Z,157.60
2022-09-17T10:17:20.927Z,155.60
2022-09-17T10:20:22.749Z,152.43
2022-09-17T10:22:52.472Z,113.37
2022-09-17T10:25:32.967Z,60.80
2022-09-17T10:28:05.893Z,87.25
2022-09-17T10:30:36.235Z,69.63
2022-09-17T10:33:24.716Z,119.43
2022-09-17T10:36:01.393Z,53.05
2022-09-17T10:38:35.233Z,161.82
2022-09-17T10:41:21.846Z,170.45
2022-09-17T10:43:52.032Z,86.95
2022-09-17T10:46:28.024Z,133.38
2022-09-17T10:49:13.255Z,76.80
2022-09-17T10:51:42.623Z,94.90
2022-09-17T10:54:40.762Z,115.88
2022-09-17T10:57:17.463Z,107.40
2022-09-17T11:00:13.378Z,105.13
2022-09-17T11:03:47.905Z,111.55
2022-09-17T11:06:46.891Z,93.07
2022-09-17T11:09:28.474Z,125.28
2022-09-17T11:12:15.416Z,128.52
2022-09-17T11:14:56.148Z,102.15
2022-09-17T11:18:27.314Z,106.25
2022-09-17T11:21:25.864Z,72.75
2022-09-17T11:24:24.911Z,92.25
2022-09-17T11:27:06.390Z,90.60
2022-09-17T11:29:58.593Z,102.15
2022-09-17T11:32:53.490Z,69.68
2022-09-17T11:35:26.803Z,105.85
2022-09-17T11:38:03.094Z,158.18
2022-09-17T11:40:41.232Z,102.40
2022-09-17T11:43:22.496Z,62.55
2022-09-17T11:46:03.049Z,104.13
2022-09-17T11:48:44.544Z,121.22
2022-09-17T11:51:27.556Z,89.53
2022-09-17T11:54:07.048Z,75.88
2022-09-17T11:56:44.544Z,111.78
2022-09-17T11:59:23.388Z,59.55
2022-09-17T12:01:58.722Z,80.30
2022-09-17T12:04:45.713Z,59.08
2022-09-17T12:07:42.523Z,103.38
2022-09-17T12:10:38.275Z,95.35
2022-09-17T12:13:24.175Z,98.57
2022-09-17T12:16:08.032Z,68.75
2022-09-17T12:18:52.840Z,96.80
2022-09-17T12:21:27.728Z,118.38
2022-09-17T12:24:04.703Z,124.97
2022-09-17T12:26:57.050Z,157.60
2022-09-17T12:30:05.765Z,103.72
2022-09-17T12:33:15.208Z,89.68
2022-09-17T12:36:05.365Z,114.75
2022-09-17T12:39:11.180Z,124.65
2022-09-17T12:41:58.281Z,88.13
2022-09-17T12:45:02.905Z,82.05
2022-09-17T12:48:14.065Z,97.05
2022-09-17T12:51:04.072Z,116.35
2022-09-17T12:53:43.903Z,94.10
2022-09-17T12:56:37.847Z,135.80
2022-09-17T12:59:14.677Z,151.65
2022-09-17T13:01:55.418Z,148.07
2022-09-17T13:05:02.400Z,113.38
2022-09-17T13:07:56.181Z,89.60
2022-09-17T13:11:06.373Z,116.15
2022-09-17T13:13:49.470Z,162.85
2022-09-17T13:16:26.325Z,124.03
2022-09-17T13:19:15.936Z,117.60
2022-09-17T13:21:54.696Z,123.55
2022-09-17T13:24:27.151Z,82.30
2022-09-17T13:30:04.437Z,134.50
2022-09-17T13:32:51.525Z,148.68
2022-09-17T13:35:50.292Z,136.07
2022-09-17T13:38:23.898Z,145.45
2022-09-17T13:41:13.978Z,145.75
2022-09-17T13:43:47.865Z,155.48
2022-09-17T13:46:25.131Z,126.25
2022-09-17T13:49:01.095Z,121.60
2022-09-17T13:51:55.540Z,145.98
2022-09-17T13:54:37.322Z,154.00
2022-09-17T13:57:14.667Z,108.70
2022-09-17T14:00:00.102Z,141.80
2022-09-17T14:02:37.699Z,138.63
2022-09-17T14:05:37.599Z,132.77
2022-09-17T14:08:31.238Z,180.00
2022-09-17T14:11:06.024Z,148.40
2022-09-17T14:13:46.043Z,146.55
2022-09-17T14:16:47.161Z,139.43
2022-09-17T14:19:36.873Z,133.18
2022-09-17T14:22:16.589Z,118.78
2022-09-17T14:24:54.489Z,112.30
2022-09-17T14:27:44.592Z,106.05
2022-09-17T14:30:17.748Z,111.72
2022-09-17T14:32:56.677Z,103.50
2022-09-17T14:35:35.129Z,104.50
2022-09-17T14:38:12.829Z,88.80
2022-09-17T14:40:47.059Z,88.05
2022-09-17T14:43:25.201Z,100.53
2022-09-17T14:45:55.326Z,104.00
2022-09-17T14:48:33.430Z,72.63
2022-09-17T14:51:30.743Z,73.57
2022-09-17T14:54:20.730Z,57.72
2022-09-17T14:57:01.584Z,69.90
2022-09-17T14:59:50.245Z,93.25
2022-09-17T15:02:36.538Z,74.63
2022-09-17T15:05:21.646Z,63.50
2022-09-17T15:07:51.770Z,53.42
2022-09-17T15:10:24.115Z,71.47
2022-09-17T15:12:55.281Z,89.28
2022-09-17T15:15:27.780Z,59.17
2022-09-17T15:20:32.329Z,74.15
2022-09-17T15:23:13.445Z,112.00
2022-09-17T15:25:45.507Z,58.05
2022-09-17T15:28:29.599Z,64.80
2022-09-17T15:30:58.827Z,109.15
2022-09-17T15:33:29.777Z,64.82
2022-09-17T15:36:11.092Z,44.30
2022-09-17T15:38:42.241Z,66.93
2022-09-17T15:41:30.844Z,52.60
2022-09-17T15:44:30.810Z,78.50
2022-09-17T15:47:53.316Z,76.47
2022-09-17T15:50:25.558Z,48.30
2022-09-17T15:53:14.137Z,32.92
2022-09-17T15:55:48.188Z,56.67
2022-09-17T15:58:27.928Z,75.13
2022-09-17T16:01:53.940Z,71.93
2022-09-17T16:04:32.430Z,104.93
2022-09-17T16:07:22.044Z,76.80
2022-09-17T16:09:52.958Z,128.82
2022-09-17T16:12:24.755Z,120.85
2022-09-17T16:14:56.086Z,97.77
2022-09-17T16:17:33.218Z,100.25
2022-09-17T16:20:08.934Z,75.22
2022-09-17T16:22:38.067Z,62.03
2022-09-17T16:25:08.431Z,110.78
2022-09-17T16:27:51.411Z,110.40
2022-09-17T16:30:22.943Z,67.45
2022-09-17T16:32:54.806Z,107.13
2022-09-17T16:35:26.951Z,98.03
2022-09-17T16:37:58.097Z,91.25
2022-09-17T16:40:31.562Z,91.55
2022-09-17T16:43:03.193Z,81.65
2022-09-17T16:45:32.834Z,93.90
2022-09-17T16:48:04.392Z,99.03
2022-09-17T16:50:34.444Z,118.20
2022-09-17T16:53:05.490Z,108.45
2022-09-17T16:55:34.875Z,103.75
2022-09-17T16:58:04.013Z,80.38
2022-09-17T17:00:33.252Z,106.90
2022-09-17T17:03:06.888Z,86.60
2022-09-17T17:05:38.828Z,88.18
2022-09-17T17:08:09.183Z,116.80
2022-09-17T17:10:40.036Z,105.53
2022-09-17T17:13:09.171Z,102.95
2022-09-17T17:15:41.466Z,79.00
2022-09-17T17:18:12.976Z,120.28
2022-09-17T17:20:45.458Z,99.78
2022-09-17T17:23:18.035Z,145.02
2022-09-17T17:25:49.553Z,108.47
2022-09-17T17:28:18.718Z,117.80
2022-09-17T17:30:49.048Z,98.25
2022-09-17T17:33:19.797Z,86.55
2022-09-17T17:35:48.949Z,118.45
2022-09-17T17:38:19.330Z,106.15
2022-09-17T17:40:48.567Z,104.95
2022-09-17T17:43:17.749Z,81.60
2022-09-17T17:45:46.889Z,98.93
2022-09-17T17:48:16.063Z,85.57
2022-09-17T17:50:46.565Z,104.70
2022-09-17T17:53:15.781Z,92.00
2022-09-17T17:55:44.918Z,89.90
2022-09-17T17:58:14.129Z,73.53
2022-09-17T18:00:43.193Z,86.35
2022-09-17T18:03:12.361Z,92.40
2022-09-17T18:05:41.798Z,80.28
2022-09-17T18:08:12.255Z,91.60
2022-09-17T18:10:41.503Z,99.57
2022-09-17T18:13:10.733Z,58.22
2022-09-17T18:15:39.879Z,62.60
2022-09-17T18:18:09.029Z,79.00
2022-09-17T18:20:38.164Z,68.55
2022-09-17T18:23:07.311Z,98.07
2022-09-17T18:25:37.775Z,60.72
2022-09-17T18:28:06.874Z,67.95
2022-09-17T18:30:38.644Z,62.83
2022-09-17T18:33:07.821Z,57.43
2022-09-17T18:35:37.619Z,68.28
2022-09-17T18:38:07.214Z,63.92
2022-09-17T18:40:37.804Z,61.13
2022-09-17T18:43:06.969Z,55.60
2022-09-17T18:45:36.128Z,52.58
2022-09-17T18:48:07.001Z,66.65
2022-09-17T18:50:36.505Z,64.00
2022-09-17T18:53:06.066Z,63.58
2022-09-17T18:55:35.237Z,52.53
2022-09-17T18:58:05.725Z,56.25
2022-09-17T19:00:34.895Z,50.03
2022-09-17T19:03:04.067Z,51.03
2022-09-17T19:05:33.216Z,60.20
2022-09-17T19:08:02.713Z,54.45
2022-09-17T19:10:33.457Z,56.35
2022-09-17T19:13:04.586Z,56.88
2022-09-17T19:15:35.305Z,49.15
2022-09-17T19:18:04.537Z,53.85
2022-09-17T19:20:38.799Z,60.38
2022-09-17T19:23:09.082Z,54.40
2022-09-17T19:25:39.170Z,60.05
2022-09-17T19:28:09.856Z,58.83
2022-09-17T19:30:39.063Z,57.78
2022-09-17T19:33:08.232Z,54.05
2022-09-17T19:35:37.367Z,60.03
2022-09-17T19:38:11.160Z,59.22
2022-09-17T19:40:44.238Z,60.53
2022-09-17T19:43:15.224Z,57.08
2022-09-17T19:45:44.630Z,55.13
2022-09-17T19:48:13.713Z,57.85
2022-09-17T19:50:52.687Z,57.88
2022-09-17T19:53:22.330Z,63.63
2022-09-17T19:55:51.582Z,68.10
2022-09-17T19:58:22.719Z,67.97
2022-09-17T20:00:57.139Z,70.72
2022-09-17T20:03:27.027Z,82.93
2022-09-17T20:06:00.868Z,73.13
2022-09-17T20:08:30.731Z,70.95
2022-09-17T20:11:06.114Z,79.60
2022-09-17T20:13:37.075Z,69.70
2022-09-17T20:16:06.781Z,73.63
2022-09-17T20:18:37.313Z,77.93
2022-09-17T20:21:11.176Z,68.32
2022-09-17T20:23:40.810Z,66.30
2022-09-17T20:26:10.199Z,69.28
2022-09-17T20:28:41.106Z,69.00
2022-09-17T20:31:14.066Z,74.35
2022-09-17T20:33:44.316Z,67.47
2022-09-17T20:36:15.486Z,63.40
2022-09-17T20:39:10.602Z,65.38
2022-09-17T20:41:36.135Z,66.50
2022-09-17T20:44:08.665Z,68.95
2022-09-17T20:46:38.152Z,64.50
2022-09-17T20:49:07.546Z,61.88
2022-09-17T20:51:36.746Z,60.58
2022-09-17T20:54:06.330Z,63.65
2022-09-17T20:56:37.432Z,61.60
2022-09-17T20:59:14.461Z,60.78
2022-09-17T21:01:45.939Z,61.45
2022-09-17T21:04:19.198Z,62.45
2022-09-17T21:06:52.398Z,65.65
2022-09-17T21:09:22.095Z,61.05
2022-09-17T21:11:51.315Z,66.68
2022-09-17T21:14:21.982Z,59.70
2022-09-17T21:16:51.862Z,55.80
2022-09-17T21:19:26.379Z,60.45
2022-09-17T21:21:56.462Z,58.65
2022-09-17T21:24:26.255Z,51.60
2022-09-17T21:26:55.611Z,54.83
2022-09-17T21:29:26.594Z,48.90
2022-09-17T21:31:56.757Z,56.95
2022-09-17T21:34:26.064Z,57.08
2022-09-17T21:36:55.296Z,62.70
2022-09-17T21:39:24.441Z,59.92
2022-09-17T21:41:53.582Z,52.70
2022-09-17T21:44:22.704Z,67.65
2022-09-17T21:46:57.528Z,59.38
2022-09-17T21:49:27.067Z,84.20
2022-09-17T21:51:56.209Z,62.83
2022-09-17T21:54:28.180Z,71.07
2022-09-17T21:56:59.366Z,64.15
2022-09-17T21:59:28.623Z,69.78
2022-09-17T22:01:59.451Z,62.20
2022-09-17T22:04:28.623Z,61.67
2022-09-17T22:06:59.328Z,62.72
2022-09-17T22:09:30.334Z,66.43
2022-09-17T22:12:01.269Z,64.60
2022-09-17T22:14:30.371Z,66.68
2022-09-17T22:17:01.155Z,71.85
2022-09-17T22:19:30.318Z,69.03
2022-09-17T22:21:59.435Z,60.63
2022-09-17T22:24:28.956Z,62.30
2022-09-17T22:26:58.612Z,60.85
2022-09-17T22:29:31.577Z,74.47
2022-09-17T22:32:02.321Z,48.78
2022-09-17T22:34:31.639Z,64.75
2022-09-17T22:37:01.040Z,62.90
2022-09-17T22:39:30.222Z,58.40
2022-09-17T22:41:59.565Z,67.32
2022-09-17T22:44:31.675Z,56.17
2022-09-17T22:47:02.291Z,65.82
2022-09-17T22:49:31.603Z,48.22
2022-09-17T22:52:00.807Z,56.40
2022-09-17T22:54:30.003Z,60.55
2022-09-17T22:56:59.116Z,56.72
2022-09-17T22:59:28.464Z,71.35
2022-09-17T23:01:57.749Z,67.90
2022-09-17T23:04:28.572Z,61.90
2022-09-17T23:06:57.777Z,71.22
2022-09-17T23:09:26.979Z,62.83
2022-09-17T23:11:56.131Z,68.35
2022-09-17T23:14:25.420Z,53.70
2022-09-17T23:16:54.629Z,62.17
2022-09-17T23:19:24.050Z,59.55
2022-09-17T23:21:54.667Z,52.05
2022-09-17T23:24:24.122Z,67.72
2022-09-17T23:26:53.306Z,66.18
2022-09-17T23:29:22.438Z,56.20
2022-09-17T23:31:51.704Z,53.22
2022-09-17T23:34:21.277Z,54.00
2022-09-17T23:36:50.493Z,65.97
2022-09-17T23:39:21.010Z,48.47
2022-09-17T23:41:50.135Z,59.42
2022-09-17T23:44:19.379Z,62.67
2022-09-17T23:46:48.677Z,63.40
2022-09-17T23:49:17.888Z,65.95
2022-09-17T23:51:47.292Z,68.35
2022-09-17T23:54:16.644Z,59.47
2022-09-17T23:56:47.120Z,63.35
2022-09-17T23:59:16.374Z,67.85
